createdAt,value
2023-08-04T00:00:55.234Z,2.60
2023-08-04T00:03:23.283Z,2.30
2023-08-04T00:05:51.189Z,2.17
2023-08-04T00:08:19.099Z,1.57
2023-08-04T00:10:48.535Z,3.10
2023-08-04T00:13:16.482Z,1.60
2023-08-04T00:15:44.393Z,2.03
2023-08-04T00:18:12.368Z,1.60
2023-08-04T00:20:40.325Z,2.53
2023-08-04T00:23:08.234Z,1.60
2023-08-04T00:25:36.158Z,2.50
2023-08-04T00:28:05.851Z,2.20
2023-08-04T00:30:33.726Z,2.67
2023-08-04T00:33:02.538Z,5.03
2023-08-04T00:35:30.558Z,3.70
2023-08-04T00:37:58.570Z,2.37
2023-08-04T00:40:26.554Z,5.00
2023-08-04T00:42:54.471Z,3.50
2023-08-04T00:45:24.225Z,2.20
2023-08-04T00:47:53.327Z,3.27
2023-08-04T00:50:21.715Z,4.80
2023-08-04T00:52:50.866Z,4.77
2023-08-04T00:55:19.573Z,2.97
2023-08-04T00:57:49.071Z,3.20
2023-08-04T01:00:17.043Z,4.87
2023-08-04T01:02:46.397Z,3.87
2023-08-04T01:05:14.419Z,2.90
2023-08-04T01:07:46.173Z,3.50
2023-08-04T01:10:19.197Z,4.73
2023-08-04T01:12:52.892Z,4.53
2023-08-04T01:15:24.512Z,2.17
2023-08-04T01:17:54.030Z,2.73
2023-08-04T01:20:22.064Z,2.90
2023-08-04T01:22:51.471Z,4.70
2023-08-04T01:25:19.791Z,4.40
2023-08-04T01:27:51.815Z,3.90
2023-08-04T01:30:21.795Z,5.07
2023-08-04T01:32:50.012Z,5.03
2023-08-04T01:35:18.642Z,4.73
2023-08-04T01:37:46.714Z,5.20
2023-08-04T01:40:17.104Z,3.70
2023-08-04T01:42:45.056Z,4.03
2023-08-04T01:45:12.996Z,4.87
2023-08-04T01:50:23.405Z,5.07
2023-08-04T01:52:51.436Z,5.10
2023-08-04T01:55:20.841Z,4.23
2023-08-04T01:57:48.733Z,4.40
2023-08-04T02:00:17.558Z,4.73
2023-08-04T02:02:45.492Z,3.60
2023-08-04T02:05:15.014Z,7.27
2023-08-04T02:07:42.974Z,4.33
2023-08-04T02:10:11.291Z,6.27
2023-08-04T02:12:40.568Z,7.50
2023-08-04T02:15:09.342Z,4.37
2023-08-04T02:17:37.725Z,4.77
2023-08-04T02:20:07.231Z,3.77
2023-08-04T02:22:35.106Z,5.43
2023-08-04T02:25:03.004Z,4.67
2023-08-04T02:27:31.982Z,6.07
2023-08-04T02:30:01.283Z,4.13
2023-08-04T02:32:32.171Z,9.30
2023-08-04T02:35:00.046Z,7.87
2023-08-04T02:37:27.940Z,10.73
2023-08-04T02:39:56.101Z,5.93
2023-08-04T02:42:24.113Z,5.07
2023-08-04T02:44:55.028Z,6.13
2023-08-04T02:47:24.447Z,5.50
2023-08-04T02:49:52.408Z,6.63
2023-08-04T02:52:21.314Z,5.57
2023-08-04T02:54:49.345Z,6.13
2023-08-04T02:57:17.325Z,5.10
2023-08-04T02:59:45.299Z,6.27
2023-08-04T03:02:13.308Z,5.43
2023-08-04T03:04:42.534Z,7.37
2023-08-04T03:07:10.451Z,6.87
2023-08-04T03:09:38.321Z,7.43
2023-08-04T03:12:06.961Z,6.20
2023-08-04T03:14:34.880Z,4.47
2023-08-04T03:17:02.825Z,5.70
2023-08-04T03:19:30.773Z,6.13
2023-08-04T03:22:00.006Z,5.17
2023-08-04T03:24:27.950Z,6.47
2023-08-04T03:26:55.876Z,6.33
2023-08-04T03:29:23.818Z,14.27
2023-08-04T03:31:51.797Z,5.73
2023-08-04T03:34:19.770Z,8.83
2023-08-04T03:36:47.652Z,6.17
2023-08-04T03:39:16.921Z,7.13
2023-08-04T03:41:45.233Z,7.67
2023-08-04T03:44:13.507Z,8.60
2023-08-04T03:46:41.442Z,6.53
2023-08-04T03:49:09.363Z,8.57
2023-08-04T03:51:37.254Z,7.60
2023-08-04T03:54:06.135Z,8.93
2023-08-04T03:56:35.410Z,6.10
2023-08-04T03:59:06.342Z,9.50
2023-08-04T04:01:34.262Z,5.80
2023-08-04T04:04:02.199Z,5.80
2023-08-04T04:06:30.075Z,8.13
2023-08-04T04:08:58.018Z,7.37
2023-08-04T04:11:26.069Z,7.97
2023-08-04T04:13:55.364Z,7.53
2023-08-04T04:16:23.451Z,11.47
2023-08-04T04:18:51.349Z,9.20
2023-08-04T04:21:19.277Z,8.77
2023-08-04T04:23:47.160Z,10.23
2023-08-04T04:26:15.085Z,8.03
2023-08-04T04:28:43.029Z,10.50
2023-08-04T04:31:12.312Z,9.67
2023-08-04T04:33:40.249Z,7.50
2023-08-04T04:36:08.229Z,9.87
2023-08-04T04:38:36.135Z,9.70
2023-08-04T04:41:04.553Z,5.43
2023-08-04T04:43:32.785Z,8.27
2023-08-04T04:46:00.916Z,6.20
2023-08-04T04:48:30.293Z,10.87
2023-08-04T04:50:58.139Z,9.83
2023-08-04T04:53:26.157Z,11.33
2023-08-04T04:55:54.077Z,9.37
2023-08-04T04:58:21.952Z,8.03
2023-08-04T05:00:49.803Z,10.63
2023-08-04T05:03:17.704Z,6.27
2023-08-04T05:05:47.043Z,5.23
2023-08-04T05:08:14.933Z,6.93
2023-08-04T05:10:42.993Z,5.87
2023-08-04T05:13:10.832Z,10.57
2023-08-04T05:15:38.750Z,5.83
2023-08-04T05:18:06.651Z,5.50
2023-08-04T05:20:34.524Z,7.63
2023-08-04T05:23:03.894Z,9.37
2023-08-04T05:25:31.838Z,6.83
2023-08-04T05:28:20.697Z,9.97
2023-08-04T05:30:48.717Z,5.70
2023-08-04T05:33:16.685Z,6.17
2023-08-04T05:35:48.281Z,7.83
2023-08-04T05:38:17.571Z,5.13
2023-08-04T05:40:46.385Z,7.67
2023-08-04T05:43:15.074Z,9.83
2023-08-04T05:45:44.894Z,6.27
2023-08-04T05:48:13.177Z,6.57
2023-08-04T05:50:41.186Z,7.93
2023-08-04T05:53:09.175Z,6.70
2023-08-04T05:55:38.622Z,10.80
2023-08-04T05:58:06.636Z,8.40
2023-08-04T06:00:36.608Z,12.77
2023-08-04T06:03:05.425Z,10.03
2023-08-04T06:05:33.540Z,9.77
2023-08-04T06:08:02.085Z,5.87
2023-08-04T06:10:29.968Z,6.47
2023-08-04T06:12:59.236Z,7.30
2023-08-04T06:15:27.183Z,10.33
2023-08-04T06:17:55.149Z,7.83
2023-08-04T06:20:24.589Z,7.67
2023-08-04T06:22:52.476Z,5.83
2023-08-04T06:25:20.375Z,6.50
2023-08-04T06:27:48.276Z,7.33
2023-08-04T06:30:17.857Z,7.97
2023-08-04T06:32:47.286Z,6.70
2023-08-04T06:35:15.337Z,8.87
2023-08-04T06:37:43.441Z,9.53
2023-08-04T06:40:12.392Z,7.10
2023-08-04T06:42:40.338Z,7.37
2023-08-04T06:45:09.410Z,8.60
2023-08-04T06:47:39.640Z,6.80
2023-08-04T06:50:08.718Z,8.70
2023-08-04T06:52:36.902Z,6.87
2023-08-04T06:55:06.090Z,7.40
2023-08-04T06:57:34.233Z,5.80
2023-08-04T07:00:02.127Z,5.77
2023-08-04T07:02:30.069Z,7.80
2023-08-04T07:04:59.408Z,6.40
2023-08-04T07:07:27.506Z,7.53
2023-08-04T07:09:55.452Z,9.27
2023-08-04T07:12:23.408Z,9.10
2023-08-04T07:14:51.331Z,6.27
2023-08-04T07:17:19.147Z,7.90
2023-08-04T07:19:48.889Z,7.03
2023-08-04T07:22:18.221Z,6.80
2023-08-04T07:24:48.573Z,8.00
2023-08-04T07:27:16.458Z,7.57
2023-08-04T07:29:44.345Z,5.13
2023-08-04T07:32:12.236Z,8.17
2023-08-04T07:34:40.177Z,6.10
2023-08-04T07:37:08.080Z,6.53
2023-08-04T07:39:37.249Z,6.43
2023-08-04T07:42:06.030Z,5.57
2023-08-04T07:44:35.348Z,6.20
2023-08-04T07:47:03.316Z,8.20
2023-08-04T07:49:31.532Z,8.10
2023-08-04T07:51:59.440Z,5.40
2023-08-04T07:54:27.299Z,8.00
2023-08-04T07:56:56.776Z,4.30
2023-08-04T07:59:24.671Z,5.97
2023-08-04T08:01:52.651Z,5.63
2023-08-04T08:04:20.662Z,6.23
2023-08-04T08:06:48.971Z,4.97
2023-08-04T08:09:16.927Z,5.93
2023-08-04T08:11:44.859Z,4.70
2023-08-04T08:14:14.285Z,4.33
2023-08-04T08:16:42.285Z,4.93
2023-08-04T08:19:11.078Z,4.13
2023-08-04T08:21:38.947Z,6.13
2023-08-04T08:24:07.066Z,6.57
2023-08-04T08:26:34.962Z,9.97
2023-08-04T08:29:03.506Z,3.63
2023-08-04T08:31:32.817Z,7.37
2023-08-04T08:34:00.708Z,4.23
2023-08-04T08:36:28.714Z,3.83
2023-08-04T08:38:56.673Z,6.00
2023-08-04T08:41:24.777Z,3.97
2023-08-04T08:43:52.829Z,6.57
2023-08-04T08:46:20.915Z,7.10
2023-08-04T08:48:52.139Z,8.53
2023-08-04T08:51:22.408Z,4.23
2023-08-04T08:53:50.504Z,5.90
2023-08-04T08:56:18.960Z,4.57
2023-08-04T08:58:46.988Z,6.07
2023-08-04T09:01:15.110Z,4.87
2023-08-04T09:03:43.372Z,4.43
2023-08-04T09:06:12.740Z,4.40
2023-08-04T09:08:40.773Z,6.20
2023-08-04T09:11:09.113Z,6.50
2023-08-04T09:13:41.457Z,5.60
2023-08-04T09:16:13.104Z,3.77
2023-08-04T09:18:41.858Z,4.53
2023-08-04T09:21:13.731Z,6.80
2023-08-04T09:23:45.276Z,4.33
2023-08-04T09:26:13.203Z,5.07
2023-08-04T09:28:41.112Z,5.43
2023-08-04T09:31:10.265Z,4.17
2023-08-04T09:33:39.513Z,4.67
2023-08-04T09:36:08.866Z,4.43
2023-08-04T09:38:39.430Z,5.17
2023-08-04T09:41:08.400Z,4.23
2023-08-04T09:43:36.446Z,6.03
2023-08-04T09:46:06.505Z,3.87
2023-08-04T09:48:35.103Z,3.27
2023-08-04T09:51:07.530Z,5.03
2023-08-04T09:53:55.386Z,3.77
2023-08-04T09:56:27.266Z,4.53
2023-08-04T09:58:55.257Z,3.73
2023-08-04T10:01:23.244Z,4.87
2023-08-04T10:03:55.130Z,4.53
2023-08-04T10:06:23.477Z,3.43
2023-08-04T10:08:56.035Z,4.37
2023-08-04T10:11:24.406Z,5.00
2023-08-04T10:13:53.860Z,3.27
2023-08-04T10:16:24.501Z,6.63
2023-08-04T10:18:53.912Z,4.63
2023-08-04T10:21:24.995Z,4.97
2023-08-04T10:23:54.790Z,3.97
2023-08-04T10:26:22.801Z,5.60
2023-08-04T10:29:04.110Z,4.53
2023-08-04T10:31:46.098Z,4.67
2023-08-04T10:34:18.945Z,3.53
2023-08-04T10:37:05.519Z,4.80
2023-08-04T10:39:36.541Z,5.93
2023-08-04T10:42:08.310Z,4.37
2023-08-04T10:44:53.570Z,3.47
2023-08-04T10:47:36.213Z,5.07
2023-08-04T10:50:05.537Z,7.50
2023-08-04T10:52:35.427Z,4.37
2023-08-04T10:55:07.723Z,5.53
2023-08-04T10:57:37.749Z,4.00
2023-08-04T11:00:07.715Z,4.80
2023-08-04T11:02:36.484Z,5.13
2023-08-04T11:05:06.275Z,3.97
2023-08-04T11:07:34.656Z,4.97
2023-08-04T11:10:07.097Z,3.87
2023-08-04T11:12:37.776Z,4.33
2023-08-04T11:15:06.851Z,5.77
2023-08-04T11:17:34.984Z,4.83
2023-08-04T11:20:03.997Z,5.37
2023-08-04T11:22:33.021Z,4.33
2023-08-04T11:25:00.993Z,5.23
2023-08-04T11:27:30.333Z,3.60
2023-08-04T11:29:58.254Z,2.77
2023-08-04T11:32:26.625Z,3.93
2023-08-04T11:34:57.016Z,2.37
2023-08-04T11:37:25.583Z,3.43
2023-08-04T11:39:54.906Z,2.47
2023-08-04T11:42:24.811Z,2.93
2023-08-04T11:44:54.094Z,3.30
2023-08-04T11:47:22.048Z,3.10
2023-08-04T11:49:50.263Z,2.57
2023-08-04T11:52:18.265Z,3.33
2023-08-04T11:54:53.349Z,4.33
2023-08-04T11:57:22.098Z,3.17
2023-08-04T11:59:50.426Z,3.80
2023-08-04T12:02:19.981Z,4.90
2023-08-04T12:04:48.384Z,3.47
2023-08-04T12:07:17.064Z,2.30
2023-08-04T12:09:47.139Z,5.17
2023-08-04T12:12:15.005Z,5.17
2023-08-04T12:15:00.162Z,5.77
2023-08-04T12:17:38.881Z,2.57
2023-08-04T12:20:08.503Z,5.80
2023-08-04T12:22:37.471Z,4.53
2023-08-04T12:25:06.507Z,6.07
2023-08-04T12:27:34.971Z,4.43
2023-08-04T12:30:03.316Z,4.60
2023-08-04T12:32:32.890Z,3.03
2023-08-04T12:35:02.388Z,6.53
2023-08-04T12:37:30.439Z,4.23
2023-08-04T12:39:58.380Z,3.90
2023-08-04T12:42:26.366Z,4.67
2023-08-04T12:44:54.273Z,4.70
2023-08-04T12:47:22.730Z,3.43
2023-08-04T12:49:51.040Z,3.27
2023-08-04T12:52:21.019Z,3.63
2023-08-04T12:54:49.018Z,3.60
2023-08-04T12:57:16.985Z,3.50
2023-08-04T12:59:44.904Z,4.40
2023-08-04T13:02:12.854Z,5.57
2023-08-04T13:04:40.920Z,4.87
2023-08-04T13:07:08.991Z,3.67
2023-08-04T13:09:38.277Z,3.43
2023-08-04T13:12:06.736Z,7.40
2023-08-04T13:14:34.615Z,4.40
2023-08-04T13:17:02.594Z,5.53
2023-08-04T13:19:30.540Z,4.43
2023-08-04T13:21:58.522Z,2.93
2023-08-04T13:24:26.417Z,3.87
2023-08-04T13:26:55.713Z,5.03
2023-08-04T13:29:23.835Z,6.43
2023-08-04T13:31:52.098Z,4.67
2023-08-04T13:34:20.311Z,4.63
2023-08-04T13:36:48.251Z,4.07
2023-08-04T13:39:16.145Z,4.87
2023-08-04T13:41:44.001Z,5.67
2023-08-04T13:44:13.351Z,5.07
2023-08-04T13:46:41.490Z,3.10
2023-08-04T13:49:09.499Z,4.33
2023-08-04T13:51:37.406Z,4.83
2023-08-04T13:54:05.520Z,5.53
2023-08-04T13:56:34.655Z,4.27
2023-08-04T13:59:02.604Z,3.77
2023-08-04T14:01:32.261Z,3.57
2023-08-04T14:04:00.311Z,3.10
2023-08-04T14:06:29.489Z,4.17
2023-08-04T14:08:57.371Z,4.40
2023-08-04T14:11:25.261Z,3.67
2023-08-04T14:13:53.228Z,4.93
2023-08-04T14:16:21.205Z,5.73
2023-08-04T14:18:50.500Z,2.97
2023-08-04T14:21:18.556Z,5.27
2023-08-04T14:23:46.390Z,4.47
2023-08-04T14:26:14.417Z,3.67
2023-08-04T14:28:42.390Z,4.20
2023-08-04T14:31:10.389Z,7.07
2023-08-04T14:33:38.383Z,3.47
2023-08-04T14:36:07.853Z,3.13
2023-08-04T14:38:35.931Z,4.73
2023-08-04T14:41:03.888Z,4.00
2023-08-04T14:43:31.776Z,4.97
2023-08-04T14:45:59.741Z,3.83
2023-08-04T14:48:27.692Z,2.70
2023-08-04T14:50:55.748Z,3.10
2023-08-04T14:53:25.375Z,4.97
2023-08-04T14:55:53.339Z,2.60
2023-08-04T14:58:21.358Z,4.50
2023-08-04T15:00:51.242Z,3.43
2023-08-04T15:03:20.691Z,6.43
2023-08-04T15:05:48.728Z,3.10
2023-08-04T15:08:16.655Z,3.23
2023-08-04T15:10:46.030Z,2.77
2023-08-04T15:13:13.924Z,2.57
2023-08-04T15:15:41.892Z,3.40
2023-08-04T15:18:09.961Z,4.57
2023-08-04T15:20:38.739Z,4.03
2023-08-04T15:23:06.655Z,3.90
2023-08-04T15:25:34.596Z,3.33
2023-08-04T15:28:03.897Z,3.30
2023-08-04T15:30:35.425Z,2.50
2023-08-04T15:33:03.393Z,3.13
2023-08-04T15:35:31.445Z,3.80
2023-08-04T15:38:00.259Z,5.07
2023-08-04T15:40:28.293Z,3.13
2023-08-04T15:42:56.239Z,2.40
2023-08-04T15:45:25.631Z,3.20
2023-08-04T15:47:53.703Z,3.43
2023-08-04T15:50:21.676Z,2.10
2023-08-04T15:52:49.569Z,3.43
2023-08-04T15:55:17.525Z,2.93
2023-08-04T15:57:45.419Z,3.50
2023-08-04T16:00:14.528Z,3.70
2023-08-04T16:02:43.807Z,2.50
2023-08-04T16:05:11.740Z,2.33
2023-08-04T16:07:39.633Z,4.50
2023-08-04T16:10:08.804Z,2.00
2023-08-04T16:12:36.781Z,2.00
2023-08-04T16:15:05.292Z,2.77
2023-08-04T16:17:34.493Z,2.60
2023-08-04T16:20:04.433Z,2.47
2023-08-04T16:22:32.316Z,2.80
2023-08-04T16:25:00.232Z,2.70
2023-08-04T16:27:28.050Z,2.97
2023-08-04T16:29:55.924Z,2.57
2023-08-04T16:32:23.875Z,2.50
2023-08-04T16:34:51.740Z,3.50
2023-08-04T16:37:21.154Z,3.67
2023-08-04T16:39:49.343Z,5.43
2023-08-04T16:42:17.220Z,3.80
2023-08-04T16:44:45.111Z,2.60
2023-08-04T16:47:13.013Z,3.77
2023-08-04T16:49:40.828Z,2.10
2023-08-04T16:52:09.071Z,2.53
2023-08-04T16:54:38.283Z,2.67
2023-08-04T16:57:06.866Z,2.83
2023-08-04T16:59:34.815Z,2.67
2023-08-04T17:02:02.784Z,5.77
2023-08-04T17:04:32.779Z,2.97
2023-08-04T17:07:00.717Z,4.10
2023-08-04T17:09:28.575Z,3.07
2023-08-04T17:11:57.868Z,4.20
2023-08-04T17:14:25.817Z,3.70
2023-08-04T17:16:53.754Z,4.47
2023-08-04T17:19:21.662Z,3.20
2023-08-04T17:21:49.669Z,3.40
2023-08-04T17:24:17.590Z,3.10
2023-08-04T17:26:45.500Z,2.57
2023-08-04T17:29:14.735Z,4.03
2023-08-04T17:31:45.594Z,2.13
2023-08-04T17:34:13.797Z,3.07
2023-08-04T17:36:42.269Z,4.17
2023-08-04T17:39:10.246Z,5.87
2023-08-04T17:41:38.187Z,2.63
2023-08-04T17:44:06.854Z,2.43
2023-08-04T17:46:36.865Z,2.93
2023-08-04T17:49:04.862Z,3.23
2023-08-04T17:51:32.940Z,3.30
2023-08-04T17:54:00.788Z,3.03
2023-08-04T17:56:28.676Z,3.40
2023-08-04T17:58:56.620Z,3.60
2023-08-04T18:01:24.636Z,5.87
2023-08-04T18:03:54.085Z,3.97
2023-08-04T18:06:22.024Z,6.47
2023-08-04T18:08:50.401Z,3.40
2023-08-04T18:11:18.314Z,3.67
2023-08-04T18:13:46.462Z,3.90
2023-08-04T18:16:14.789Z,2.77
2023-08-04T18:18:42.726Z,3.63
2023-08-04T18:21:12.703Z,2.93
2023-08-04T18:23:40.603Z,3.40
2023-08-04T18:26:09.826Z,4.70
2023-08-04T18:28:37.735Z,2.30
2023-08-04T18:31:05.683Z,2.70
2023-08-04T18:33:33.567Z,3.70
2023-08-04T18:36:02.077Z,2.83
2023-08-04T18:38:31.476Z,3.53
2023-08-04T18:41:03.924Z,4.00
2023-08-04T18:43:31.905Z,4.83
2023-08-04T18:45:59.836Z,3.60
2023-08-04T18:48:27.796Z,3.90
2023-08-04T18:50:55.722Z,4.13
2023-08-04T18:53:23.765Z,5.60
2023-08-04T18:55:53.148Z,5.40
2023-08-04T18:58:21.009Z,4.40
2023-08-04T19:00:49.097Z,3.53
2023-08-04T19:03:17.261Z,5.83
2023-08-04T19:05:45.326Z,4.13
2023-08-04T19:08:13.318Z,5.70
2023-08-04T19:10:41.405Z,5.43
2023-08-04T19:13:10.693Z,3.80
2023-08-04T19:15:38.704Z,6.23
2023-08-04T19:18:06.742Z,4.30
2023-08-04T19:20:34.720Z,5.60
2023-08-04T19:23:02.697Z,5.27
2023-08-04T19:25:30.698Z,6.97
2023-08-04T19:27:58.644Z,4.27
2023-08-04T19:30:28.021Z,5.07
2023-08-04T19:32:58.345Z,5.60
2023-08-04T19:35:27.417Z,4.60
2023-08-04T19:37:55.416Z,3.90
2023-08-04T19:40:23.336Z,5.40
2023-08-04T19:42:51.359Z,6.13
2023-08-04T19:45:19.411Z,4.33
2023-08-04T19:47:48.849Z,4.37
2023-08-04T19:50:16.987Z,5.30
2023-08-04T19:52:44.993Z,4.47
2023-08-04T19:55:18.317Z,4.77
2023-08-04T19:57:49.482Z,5.27
2023-08-04T20:00:17.751Z,6.17
2023-08-04T20:02:45.833Z,6.67
2023-08-04T20:05:15.330Z,4.90
2023-08-04T20:07:43.312Z,6.17
2023-08-04T20:10:12.035Z,4.10
2023-08-04T20:12:39.985Z,14.13
2023-08-04T20:15:08.790Z,11.37
2023-08-04T20:17:36.837Z,5.73
2023-08-04T20:20:05.899Z,5.57
2023-08-04T20:22:35.200Z,6.20
2023-08-04T20:25:04.008Z,5.07
2023-08-04T20:27:31.830Z,6.73
2023-08-04T20:29:59.803Z,5.57
2023-08-04T20:32:27.814Z,7.27
2023-08-04T20:34:55.919Z,9.07
2023-08-04T20:37:24.036Z,8.40
2023-08-04T20:39:54.697Z,6.37
2023-08-04T20:42:22.776Z,5.70
2023-08-04T20:44:51.576Z,8.07
2023-08-04T20:47:19.595Z,7.87
2023-08-04T20:49:47.598Z,7.10
2023-08-04T20:52:16.709Z,9.53
2023-08-04T20:54:45.810Z,5.77
2023-08-04T20:57:15.130Z,8.23
2023-08-04T20:59:43.050Z,8.83
2023-08-04T21:02:11.013Z,7.00
2023-08-04T21:04:38.988Z,10.03
2023-08-04T21:07:09.078Z,10.90
2023-08-04T21:09:39.152Z,8.90
2023-08-04T21:12:07.698Z,9.07
2023-08-04T21:14:37.001Z,8.07
2023-08-04T21:17:05.270Z,10.53
2023-08-04T21:19:33.286Z,10.03
2023-08-04T21:22:01.270Z,7.87
2023-08-04T21:24:29.274Z,10.53
2023-08-04T21:26:57.344Z,8.13
2023-08-04T21:29:25.467Z,6.67
2023-08-04T21:31:54.829Z,8.57
2023-08-04T21:34:22.806Z,8.73
2023-08-04T21:36:51.085Z,6.77
2023-08-04T21:39:19.274Z,7.37
2023-08-04T21:41:47.178Z,5.20
2023-08-04T21:44:15.420Z,4.10
2023-08-04T21:46:43.712Z,7.60
2023-08-04T21:49:17.598Z,6.90
2023-08-04T21:51:46.042Z,6.33
2023-08-04T21:54:14.364Z,6.77
2023-08-04T21:56:42.342Z,5.30
2023-08-04T21:59:11.238Z,7.83
2023-08-04T22:01:39.393Z,4.83
2023-08-04T22:04:07.381Z,7.37
2023-08-04T22:06:36.682Z,4.80
2023-08-04T22:09:04.684Z,6.53
2023-08-04T22:11:32.569Z,6.20
2023-08-04T22:14:00.782Z,5.57
2023-08-04T22:16:28.967Z,4.47
2023-08-04T22:18:56.965Z,5.10
2023-08-04T22:21:24.992Z,7.63
2023-08-04T22:23:54.319Z,6.23
2023-08-04T22:26:22.288Z,7.13
2023-08-04T22:28:50.246Z,6.07
2023-08-04T22:31:18.242Z,6.90
2023-08-04T22:33:46.134Z,5.37
2023-08-04T22:36:13.996Z,6.40
2023-08-04T22:38:41.910Z,8.27
2023-08-04T22:41:11.190Z,6.90
2023-08-04T22:43:39.148Z,5.17
2023-08-04T22:46:07.122Z,10.30
2023-08-04T22:48:35.076Z,8.23
2023-08-04T22:51:03.005Z,6.60
2023-08-04T22:53:30.938Z,6.37
2023-08-04T22:56:00.618Z,8.87
2023-08-04T22:58:29.887Z,6.33
2023-08-04T23:00:58.075Z,7.03
2023-08-04T23:03:26.038Z,8.63
2023-08-04T23:05:54.040Z,5.20
2023-08-04T23:08:21.942Z,6.80
2023-08-04T23:10:56.159Z,8.27
2023-08-04T23:13:24.317Z,5.23
2023-08-04T23:15:53.721Z,6.83
2023-08-04T23:18:21.685Z,5.47
2023-08-04T23:20:49.965Z,5.13
2023-08-04T23:23:18.296Z,5.33
2023-08-04T23:25:46.768Z,6.93
2023-08-04T23:28:15.037Z,6.10
2023-08-04T23:30:46.869Z,6.70
2023-08-04T23:33:17.232Z,5.90
2023-08-04T23:35:52.411Z,5.40
2023-08-04T23:38:20.474Z,8.67
2023-08-04T23:40:48.507Z,5.97
2023-08-04T23:43:16.598Z,5.93
2023-08-04T23:45:44.515Z,8.83
2023-08-04T23:48:12.450Z,4.53
2023-08-04T23:50:41.712Z,5.87
2023-08-04T23:53:09.648Z,5.73
2023-08-04T23:55:37.494Z,8.53
2023-08-04T23:58:05.457Z,6.30
